KDAL/DAL METAR and TAF weather

Enter ICAO airport designator
Station Type Date Time Source
KDAL METAR 2019/08/21 21:53 UTC NOAA

KDAL 212153Z 18006KT 10SM FEW065 37/19 A2991 RMK AO2 SLP119 T03720194


Station Type Date Time Source
KDAL Decoded METAR 2019/08/21 21:53 UTC NOAA

Station name not available
Aug 21, 2019 - 05:53 PM EDT / 2019.08.21 2153 UTC
Wind: from the S (180 degrees) at 7 MPH (6 KT):0
Visibility: 10 mile(s):0
Sky conditions: mostly clear
Temperature: 99.0 F (37.2 C)
Heat index: 103.6 F (39.8 C):1
Dew Point: 66.9 F (19.4 C)
Relative Humidity: 35%
Pressure (altimeter): 29.91 in. Hg (1012 hPa)
ob: KDAL 212153Z 18006KT 10SM FEW065 37/19 A2991 RMK AO2 SLP119 T03720194
cycle: 22

Station Type Date Time Source
KDAL TAF 2019/08/21 21:45 UTC NOAA

TAF
AMD KDAL 212043Z 2121/2218 17009KT P6SM SCT060

Example: see airport list